Terminal Aerodrome Forecast
Issued by NWS Caribou, ME

Home | Current Version | Previous Version | Text Only | Print | Product List | Glossary On
Versions: 1 2 3 4 5 6 7 8 9 10 11 12 13 14 15 16 17
080
FTUS41 KCAR 230028 AAA
TAFBGR
TAF AMD
KBGR 230028Z 2300/2324 03009KT P6SM SCT025 BKN035
      TEMPO 2300/2302 BKN025
     FM230800 05008KT P6SM BKN025
     FM231400 05007KT P6SM SCT050=

USA.gov is the U.S. government's official web portal to all federal, state and local government web resources and services.